sensor_id;sensor_type;location;lat;lon;timestamp;P1;durP1;ratioP1;P2;durP2;ratioP2
52590;SDS011;38483;42.620;25.394;2024-03-23T00:54:01;8.53;;;5.63;;
52590;SDS011;38483;42.620;25.394;2024-03-23T00:56:29;7.43;;;5.23;;
52590;SDS011;38483;42.620;25.394;2024-03-23T00:58:55;9.17;;;5.73;;
52590;SDS011;38483;42.620;25.394;2024-03-23T01:01:24;8.50;;;5.33;;
52590;SDS011;38483;42.620;25.394;2024-03-23T01:03:50;6.33;;;5.30;;
52590;SDS011;38483;42.620;25.394;2024-03-23T01:06:16;9.97;;;5.73;;
52590;SDS011;38483;42.620;25.394;2024-03-23T01:08:42;8.77;;;5.23;;
52590;SDS011;38483;42.620;25.394;2024-03-23T01:11:08;6.77;;;4.73;;
52590;SDS011;38483;42.620;25.394;2024-03-23T01:13:34;8.80;;;4.97;;
52590;SDS011;38483;42.620;25.394;2024-03-23T01:16:00;6.50;;;4.77;;
52590;SDS011;38483;42.620;25.394;2024-03-23T01:18:26;4.90;;;4.30;;
52590;SDS011;38483;42.620;25.394;2024-03-23T01:20:52;7.07;;;4.27;;
52590;SDS011;38483;42.620;25.394;2024-03-23T01:23:18;7.03;;;5.10;;
52590;SDS011;38483;42.620;25.394;2024-03-23T01:25:50;7.67;;;4.70;;
52590;SDS011;38483;42.620;25.394;2024-03-23T01:28:17;6.50;;;4.47;;
52590;SDS011;38483;42.620;25.394;2024-03-23T01:30:43;8.57;;;5.50;;
52590;SDS011;38483;42.620;25.394;2024-03-23T01:33:09;8.40;;;5.67;;
52590;SDS011;38483;42.620;25.394;2024-03-23T01:35:35;9.67;;;5.80;;
52590;SDS011;38483;42.620;25.394;2024-03-23T01:38:01;6.77;;;5.00;;
52590;SDS011;38483;42.620;25.394;2024-03-23T01:40:27;7.87;;;5.40;;
52590;SDS011;38483;42.620;25.394;2024-03-23T01:42:57;10.10;;;5.43;;
52590;SDS011;38483;42.620;25.394;2024-03-23T01:45:24;8.40;;;5.93;;
52590;SDS011;38483;42.620;25.394;2024-03-23T01:47:53;9.87;;;5.80;;
52590;SDS011;38483;42.620;25.394;2024-03-23T01:50:20;9.20;;;5.63;;
52590;SDS011;38483;42.620;25.394;2024-03-23T01:52:47;10.43;;;5.20;;
52590;SDS011;38483;42.620;25.394;2024-03-23T01:55:13;8.03;;;4.87;;
52590;SDS011;38483;42.620;25.394;2024-03-23T01:57:40;7.33;;;4.87;;
52590;SDS011;38483;42.620;25.394;2024-03-23T02:00:06;7.37;;;5.33;;
52590;SDS011;38483;42.620;25.394;2024-03-23T02:02:42;7.27;;;5.17;;
52590;SDS011;38483;42.620;25.394;2024-03-23T02:05:08;9.40;;;5.33;;
52590;SDS011;38483;42.620;25.394;2024-03-23T02:07:34;7.17;;;5.30;;
52590;SDS011;38483;42.620;25.394;2024-03-23T02:10:01;9.50;;;6.17;;
52590;SDS011;38483;42.620;25.394;2024-03-23T02:12:29;6.93;;;5.27;;
52590;SDS011;38483;42.620;25.394;2024-03-23T02:14:55;8.90;;;5.33;;
52590;SDS011;38483;42.620;25.394;2024-03-23T02:17:21;9.17;;;5.60;;
52590;SDS011;38483;42.620;25.394;2024-03-23T02:19:47;8.07;;;5.77;;
52590;SDS011;38483;42.620;25.394;2024-03-23T02:22:14;8.13;;;5.70;;
52590;SDS011;38483;42.620;25.394;2024-03-23T02:24:41;8.67;;;5.60;;
52590;SDS011;38483;42.620;25.394;2024-03-23T02:27:08;9.27;;;5.77;;
52590;SDS011;38483;42.620;25.394;2024-03-23T02:29:34;10.43;;;6.00;;
52590;SDS011;38483;42.620;25.394;2024-03-23T02:32:00;7.63;;;5.30;;
52590;SDS011;38483;42.620;25.394;2024-03-23T02:34:27;7.90;;;5.43;;
52590;SDS011;38483;42.620;25.394;2024-03-23T02:36:53;9.67;;;6.17;;
52590;SDS011;38483;42.620;25.394;2024-03-23T02:39:19;9.53;;;6.40;;
52590;SDS011;38483;42.620;25.394;2024-03-23T02:41:45;9.60;;;5.40;;
52590;SDS011;38483;42.620;25.394;2024-03-23T02:44:11;7.40;;;5.10;;
52590;SDS011;38483;42.620;25.394;2024-03-23T02:46:40;7.67;;;5.07;;
52590;SDS011;38483;42.620;25.394;2024-03-23T02:49:07;6.90;;;5.23;;
52590;SDS011;38483;42.620;25.394;2024-03-23T02:51:33;8.67;;;5.30;;
52590;SDS011;38483;42.620;25.394;2024-03-23T02:53:59;7.77;;;5.57;;
52590;SDS011;38483;42.620;25.394;2024-03-23T02:56:25;7.87;;;4.83;;
52590;SDS011;38483;42.620;25.394;2024-03-23T02:58:51;8.53;;;5.60;;
52590;SDS011;38483;42.620;25.394;2024-03-23T03:01:17;9.03;;;5.40;;
52590;SDS011;38483;42.620;25.394;2024-03-23T03:03:43;10.20;;;5.67;;
52590;SDS011;38483;42.620;25.394;2024-03-23T03:06:10;9.07;;;5.17;;
52590;SDS011;38483;42.620;25.394;2024-03-23T03:08:36;8.93;;;5.83;;
52590;SDS011;38483;42.620;25.394;2024-03-23T03:11:02;9.37;;;6.03;;
52590;SDS011;38483;42.620;25.394;2024-03-23T03:13:28;9.03;;;6.13;;
52590;SDS011;38483;42.620;25.394;2024-03-23T03:15:54;9.37;;;6.43;;
52590;SDS011;38483;42.620;25.394;2024-03-23T03:18:20;9.77;;;6.67;;
52590;SDS011;38483;42.620;25.394;2024-03-23T03:20:46;10.67;;;7.10;;
52590;SDS011;38483;42.620;25.394;2024-03-23T03:23:12;11.90;;;6.50;;
52590;SDS011;38483;42.620;25.394;2024-03-23T03:25:38;9.53;;;6.30;;
52590;SDS011;38483;42.620;25.394;2024-03-23T03:28:04;8.43;;;5.57;;
52590;SDS011;38483;42.620;25.394;2024-03-23T03:30:30;9.57;;;5.57;;
52590;SDS011;38483;42.620;25.394;2024-03-23T03:32:56;14.30;;;7.33;;
52590;SDS011;38483;42.620;25.394;2024-03-23T03:35:22;11.27;;;7.17;;
52590;SDS011;38483;42.620;25.394;2024-03-23T03:37:48;10.17;;;6.70;;
52590;SDS011;38483;42.620;25.394;2024-03-23T03:40:14;10.47;;;6.47;;
52590;SDS011;38483;42.620;25.394;2024-03-23T03:42:41;10.47;;;6.00;;
52590;SDS011;38483;42.620;25.394;2024-03-23T03:45:07;8.60;;;5.90;;
52590;SDS011;38483;42.620;25.394;2024-03-23T03:47:33;8.13;;;4.93;;
52590;SDS011;38483;42.620;25.394;2024-03-23T03:49:59;6.90;;;5.47;;
52590;SDS011;38483;42.620;25.394;2024-03-23T03:52:25;7.40;;;5.40;;
52590;SDS011;38483;42.620;25.394;2024-03-23T03:54:55;9.33;;;6.07;;
52590;SDS011;38483;42.620;25.394;2024-03-23T03:57:29;10.20;;;5.93;;
52590;SDS011;38483;42.620;25.394;2024-03-23T03:59:55;12.60;;;7.30;;
52590;SDS011;38483;42.620;25.394;2024-03-23T04:02:21;13.77;;;8.27;;
52590;SDS011;38483;42.620;25.394;2024-03-23T04:04:47;14.07;;;9.20;;
52590;SDS011;38483;42.620;25.394;2024-03-23T04:07:13;14.13;;;9.57;;
52590;SDS011;38483;42.620;25.394;2024-03-23T04:09:39;11.93;;;8.37;;
52590;SDS011;38483;42.620;25.394;2024-03-23T04:12:05;10.37;;;8.17;;
52590;SDS011;38483;42.620;25.394;2024-03-23T04:14:32;11.43;;;8.17;;
52590;SDS011;38483;42.620;25.394;2024-03-23T04:16:58;11.23;;;7.60;;
52590;SDS011;38483;42.620;25.394;2024-03-23T04:19:24;11.63;;;7.37;;
52590;SDS011;38483;42.620;25.394;2024-03-23T04:21:50;10.60;;;6.93;;
52590;SDS011;38483;42.620;25.394;2024-03-23T04:24:16;10.47;;;7.57;;
52590;SDS011;38483;42.620;25.394;2024-03-23T04:26:45;7.77;;;6.53;;
52590;SDS011;38483;42.620;25.394;2024-03-23T04:29:11;11.27;;;7.10;;
52590;SDS011;38483;42.620;25.394;2024-03-23T04:31:38;9.27;;;6.53;;
52590;SDS011;38483;42.620;25.394;2024-03-23T04:34:04;10.73;;;6.57;;
52590;SDS011;38483;42.620;25.394;2024-03-23T04:36:30;11.07;;;7.40;;
52590;SDS011;38483;42.620;25.394;2024-03-23T04:38:56;12.10;;;6.77;;
52590;SDS011;38483;42.620;25.394;2024-03-23T04:41:23;10.57;;;6.23;;
52590;SDS011;38483;42.620;25.394;2024-03-23T04:43:49;9.17;;;6.37;;
52590;SDS011;38483;42.620;25.394;2024-03-23T04:46:15;9.60;;;6.57;;
52590;SDS011;38483;42.620;25.394;2024-03-23T04:48:41;9.47;;;6.77;;
52590;SDS011;38483;42.620;25.394;2024-03-23T04:51:10;11.23;;;6.60;;
52590;SDS011;38483;42.620;25.394;2024-03-23T04:53:38;12.60;;;7.63;;
52590;SDS011;38483;42.620;25.394;2024-03-23T04:56:04;10.03;;;6.17;;
52590;SDS011;38483;42.620;25.394;2024-03-23T04:58:30;9.77;;;6.63;;
52590;SDS011;38483;42.620;25.394;2024-03-23T05:00:56;10.33;;;6.70;;
52590;SDS011;38483;42.620;25.394;2024-03-23T05:03:23;12.77;;;7.23;;
52590;SDS011;38483;42.620;25.394;2024-03-23T05:05:49;9.53;;;5.77;;
52590;SDS011;38483;42.620;25.394;2024-03-23T05:08:16;8.23;;;6.10;;
52590;SDS011;38483;42.620;25.394;2024-03-23T05:10:42;7.37;;;5.60;;
52590;SDS011;38483;42.620;25.394;2024-03-23T05:13:09;7.27;;;5.00;;
52590;SDS011;38483;42.620;25.394;2024-03-23T05:15:35;7.80;;;5.23;;
52590;SDS011;38483;42.620;25.394;2024-03-23T05:18:01;8.10;;;5.37;;
52590;SDS011;38483;42.620;25.394;2024-03-23T05:20:27;6.73;;;4.77;;
52590;SDS011;38483;42.620;25.394;2024-03-23T05:22:54;9.63;;;5.50;;
52590;SDS011;38483;42.620;25.394;2024-03-23T05:25:21;6.77;;;4.70;;
52590;SDS011;38483;42.620;25.394;2024-03-23T05:27:47;6.07;;;5.07;;
52590;SDS011;38483;42.620;25.394;2024-03-23T05:30:13;7.93;;;5.40;;
52590;SDS011;38483;42.620;25.394;2024-03-23T05:32:40;7.50;;;5.33;;
52590;SDS011;38483;42.620;25.394;2024-03-23T05:35:07;7.33;;;4.70;;
52590;SDS011;38483;42.620;25.394;2024-03-23T05:37:35;8.93;;;6.30;;
52590;SDS011;38483;42.620;25.394;2024-03-23T05:40:01;7.67;;;5.33;;
52590;SDS011;38483;42.620;25.394;2024-03-23T05:42:30;8.13;;;5.83;;
52590;SDS011;38483;42.620;25.394;2024-03-23T05:44:56;9.30;;;6.50;;
52590;SDS011;38483;42.620;25.394;2024-03-23T05:47:22;8.53;;;6.47;;
52590;SDS011;38483;42.620;25.394;2024-03-23T05:49:48;9.30;;;6.17;;
52590;SDS011;38483;42.620;25.394;2024-03-23T05:52:14;9.40;;;6.13;;
52590;SDS011;38483;42.620;25.394;2024-03-23T05:54:40;7.13;;;5.40;;
52590;SDS011;38483;42.620;25.394;2024-03-23T05:57:06;9.00;;;5.57;;
52590;SDS011;38483;42.620;25.394;2024-03-23T05:59:33;10.27;;;5.53;;
52590;SDS011;38483;42.620;25.394;2024-03-23T06:01:59;7.40;;;5.40;;
52590;SDS011;38483;42.620;25.394;2024-03-23T06:04:25;7.67;;;5.13;;
52590;SDS011;38483;42.620;25.394;2024-03-23T06:06:52;7.33;;;5.50;;
52590;SDS011;38483;42.620;25.394;2024-03-23T06:09:18;11.20;;;6.93;;
52590;SDS011;38483;42.620;25.394;2024-03-23T06:11:45;9.90;;;6.67;;
52590;SDS011;38483;42.620;25.394;2024-03-23T06:14:12;11.20;;;6.70;;
52590;SDS011;38483;42.620;25.394;2024-03-23T06:16:38;9.40;;;6.90;;
52590;SDS011;38483;42.620;25.394;2024-03-23T06:19:04;10.03;;;6.63;;
52590;SDS011;38483;42.620;25.394;2024-03-23T06:21:32;9.53;;;6.37;;
52590;SDS011;38483;42.620;25.394;2024-03-23T06:23:59;10.00;;;6.70;;
52590;SDS011;38483;42.620;25.394;2024-03-23T06:26:25;10.73;;;6.33;;
52590;SDS011;38483;42.620;25.394;2024-03-23T06:28:51;9.80;;;6.00;;
52590;SDS011;38483;42.620;25.394;2024-03-23T06:31:17;7.37;;;6.07;;
52590;SDS011;38483;42.620;25.394;2024-03-23T06:33:43;10.17;;;6.47;;
52590;SDS011;38483;42.620;25.394;2024-03-23T06:36:10;8.97;;;5.57;;
52590;SDS011;38483;42.620;25.394;2024-03-23T06:38:37;7.90;;;5.97;;
52590;SDS011;38483;42.620;25.394;2024-03-23T06:41:06;7.77;;;5.30;;
52590;SDS011;38483;42.620;25.394;2024-03-23T06:43:32;8.17;;;5.80;;
52590;SDS011;38483;42.620;25.394;2024-03-23T06:45:58;8.03;;;5.80;;
52590;SDS011;38483;42.620;25.394;2024-03-23T06:48:24;8.03;;;6.60;;
52590;SDS011;38483;42.620;25.394;2024-03-23T06:50:55;9.90;;;6.30;;
52590;SDS011;38483;42.620;25.394;2024-03-23T06:53:22;9.90;;;6.77;;
52590;SDS011;38483;42.620;25.394;2024-03-23T06:55:52;9.00;;;7.07;;
52590;SDS011;38483;42.620;25.394;2024-03-23T06:58:20;12.40;;;6.63;;
52590;SDS011;38483;42.620;25.394;2024-03-23T07:00:46;9.53;;;6.30;;
52590;SDS011;38483;42.620;25.394;2024-03-23T07:03:12;10.07;;;6.97;;
52590;SDS011;38483;42.620;25.394;2024-03-23T07:05:38;10.67;;;8.00;;
52590;SDS011;38483;42.620;25.394;2024-03-23T07:08:05;8.90;;;6.07;;
52590;SDS011;38483;42.620;25.394;2024-03-23T07:10:31;7.60;;;6.03;;
52590;SDS011;38483;42.620;25.394;2024-03-23T07:12:57;10.23;;;6.77;;
52590;SDS011;38483;42.620;25.394;2024-03-23T07:15:23;7.87;;;5.93;;
52590;SDS011;38483;42.620;25.394;2024-03-23T07:17:49;8.63;;;6.17;;
52590;SDS011;38483;42.620;25.394;2024-03-23T07:20:15;14.13;;;5.93;;
52590;SDS011;38483;42.620;25.394;2024-03-23T07:22:41;9.77;;;5.97;;
52590;SDS011;38483;42.620;25.394;2024-03-23T07:25:08;8.67;;;5.27;;
52590;SDS011;38483;42.620;25.394;2024-03-23T07:27:33;6.03;;;4.60;;
52590;SDS011;38483;42.620;25.394;2024-03-23T07:30:00;5.50;;;4.27;;
52590;SDS011;38483;42.620;25.394;2024-03-23T07:32:29;7.00;;;4.47;;
52590;SDS011;38483;42.620;25.394;2024-03-23T07:34:55;6.23;;;4.37;;
52590;SDS011;38483;42.620;25.394;2024-03-23T07:37:21;6.97;;;4.37;;
52590;SDS011;38483;42.620;25.394;2024-03-23T07:39:47;8.87;;;5.00;;
52590;SDS011;38483;42.620;25.394;2024-03-23T07:42:14;6.30;;;4.53;;
52590;SDS011;38483;42.620;25.394;2024-03-23T07:44:40;6.20;;;4.50;;
52590;SDS011;38483;42.620;25.394;2024-03-23T07:47:06;8.10;;;4.93;;
52590;SDS011;38483;42.620;25.394;2024-03-23T07:49:32;6.67;;;5.50;;
52590;SDS011;38483;42.620;25.394;2024-03-23T07:51:58;8.57;;;5.93;;
52590;SDS011;38483;42.620;25.394;2024-03-23T07:54:24;12.70;;;7.63;;
52590;SDS011;38483;42.620;25.394;2024-03-23T07:56:50;11.23;;;6.00;;
52590;SDS011;38483;42.620;25.394;2024-03-23T07:59:16;7.87;;;4.17;;
52590;SDS011;38483;42.620;25.394;2024-03-23T08:01:44;6.37;;;4.73;;
52590;SDS011;38483;42.620;25.394;2024-03-23T08:04:10;10.30;;;4.50;;
52590;SDS011;38483;42.620;25.394;2024-03-23T08:06:36;34.43;;;8.20;;
52590;SDS011;38483;42.620;25.394;2024-03-23T08:09:03;8.53;;;4.37;;
52590;SDS011;38483;42.620;25.394;2024-03-23T08:11:30;5.63;;;3.83;;
52590;SDS011;38483;42.620;25.394;2024-03-23T08:13:57;5.67;;;3.40;;
52590;SDS011;38483;42.620;25.394;2024-03-23T08:16:23;4.83;;;3.27;;
52590;SDS011;38483;42.620;25.394;2024-03-23T08:18:53;7.40;;;4.30;;
52590;SDS011;38483;42.620;25.394;2024-03-23T08:21:23;4.57;;;3.23;;
52590;SDS011;38483;42.620;25.394;2024-03-23T08:23:50;7.00;;;5.10;;
52590;SDS011;38483;42.620;25.394;2024-03-23T08:26:17;7.73;;;3.50;;
52590;SDS011;38483;42.620;25.394;2024-03-23T08:28:45;7.07;;;4.23;;
52590;SDS011;38483;42.620;25.394;2024-03-23T08:31:13;6.03;;;4.20;;
52590;SDS011;38483;42.620;25.394;2024-03-23T08:33:42;5.40;;;4.00;;
52590;SDS011;38483;42.620;25.394;2024-03-23T08:36:09;4.07;;;3.40;;
52590;SDS011;38483;42.620;25.394;2024-03-23T08:38:38;5.00;;;3.97;;
52590;SDS011;38483;42.620;25.394;2024-03-23T08:41:05;3.67;;;3.03;;
52590;SDS011;38483;42.620;25.394;2024-03-23T08:43:35;5.47;;;3.13;;
52590;SDS011;38483;42.620;25.394;2024-03-23T08:48:42;6.83;;;3.40;;
52590;SDS011;38483;42.620;25.394;2024-03-23T08:51:10;4.17;;;3.07;;
52590;SDS011;38483;42.620;25.394;2024-03-23T08:53:38;5.27;;;3.00;;
52590;SDS011;38483;42.620;25.394;2024-03-23T08:56:05;4.80;;;3.10;;
52590;SDS011;38483;42.620;25.394;2024-03-23T08:58:33;3.70;;;2.57;;
52590;SDS011;38483;42.620;25.394;2024-03-23T09:01:04;5.13;;;3.30;;
52590;SDS011;38483;42.620;25.394;2024-03-23T09:03:30;3.63;;;2.67;;
52590;SDS011;38483;42.620;25.394;2024-03-23T09:05:57;5.07;;;2.63;;
52590;SDS011;38483;42.620;25.394;2024-03-23T09:08:24;4.40;;;3.00;;
52590;SDS011;38483;42.620;25.394;2024-03-23T09:10:51;6.13;;;2.93;;
52590;SDS011;38483;42.620;25.394;2024-03-23T09:13:18;3.10;;;2.80;;
52590;SDS011;38483;42.620;25.394;2024-03-23T09:15:50;3.30;;;2.60;;
52590;SDS011;38483;42.620;25.394;2024-03-23T09:18:17;2.77;;;2.40;;
52590;SDS011;38483;42.620;25.394;2024-03-23T09:20:43;3.70;;;2.37;;
52590;SDS011;38483;42.620;25.394;2024-03-23T09:23:09;2.90;;;2.50;;
52590;SDS011;38483;42.620;25.394;2024-03-23T09:25:36;6.67;;;2.67;;
52590;SDS011;38483;42.620;25.394;2024-03-23T09:28:03;4.33;;;2.20;;
52590;SDS011;38483;42.620;25.394;2024-03-23T09:30:31;2.80;;;2.50;;
52590;SDS011;38483;42.620;25.394;2024-03-23T09:32:59;4.20;;;2.30;;
52590;SDS011;38483;42.620;25.394;2024-03-23T09:35:25;2.57;;;1.97;;
52590;SDS011;38483;42.620;25.394;2024-03-23T09:37:51;3.83;;;2.40;;
52590;SDS011;38483;42.620;25.394;2024-03-23T09:40:17;8.43;;;3.80;;
52590;SDS011;38483;42.620;25.394;2024-03-23T09:42:43;5.70;;;3.30;;
52590;SDS011;38483;42.620;25.394;2024-03-23T09:45:23;2.50;;;2.10;;
52590;SDS011;38483;42.620;25.394;2024-03-23T09:47:53;3.03;;;2.30;;
52590;SDS011;38483;42.620;25.394;2024-03-23T09:50:20;2.57;;;1.77;;
52590;SDS011;38483;42.620;25.394;2024-03-23T09:52:46;2.60;;;2.20;;
52590;SDS011;38483;42.620;25.394;2024-03-23T09:55:13;2.03;;;1.77;;
52590;SDS011;38483;42.620;25.394;2024-03-23T09:57:42;3.20;;;2.13;;
52590;SDS011;38483;42.620;25.394;2024-03-23T10:00:09;5.07;;;2.90;;
52590;SDS011;38483;42.620;25.394;2024-03-23T10:02:35;2.10;;;1.80;;
52590;SDS011;38483;42.620;25.394;2024-03-23T10:05:02;2.30;;;2.00;;
52590;SDS011;38483;42.620;25.394;2024-03-23T10:07:30;3.37;;;2.03;;
52590;SDS011;38483;42.620;25.394;2024-03-23T10:09:57;2.43;;;1.67;;
52590;SDS011;38483;42.620;25.394;2024-03-23T10:12:23;3.07;;;1.90;;
52590;SDS011;38483;42.620;25.394;2024-03-23T10:14:50;2.40;;;1.87;;
52590;SDS011;38483;42.620;25.394;2024-03-23T10:19:47;2.00;;;1.80;;
52590;SDS011;38483;42.620;25.394;2024-03-23T10:22:22;3.33;;;2.43;;
52590;SDS011;38483;42.620;25.394;2024-03-23T10:24:49;3.20;;;1.73;;
52590;SDS011;38483;42.620;25.394;2024-03-23T10:27:15;3.50;;;1.90;;
52590;SDS011;38483;42.620;25.394;2024-03-23T10:29:46;2.40;;;2.03;;
52590;SDS011;38483;42.620;25.394;2024-03-23T10:32:13;3.10;;;1.87;;
52590;SDS011;38483;42.620;25.394;2024-03-23T10:34:40;2.10;;;1.87;;
52590;SDS011;38483;42.620;25.394;2024-03-23T10:37:07;4.43;;;1.90;;
52590;SDS011;38483;42.620;25.394;2024-03-23T10:39:35;3.83;;;2.13;;
52590;SDS011;38483;42.620;25.394;2024-03-23T10:42:08;3.43;;;1.80;;
52590;SDS011;38483;42.620;25.394;2024-03-23T10:44:36;5.10;;;2.40;;
52590;SDS011;38483;42.620;25.394;2024-03-23T10:47:04;1.80;;;1.70;;
52590;SDS011;38483;42.620;25.394;2024-03-23T10:49:35;4.73;;;2.10;;
52590;SDS011;38483;42.620;25.394;2024-03-23T10:54:29;4.77;;;1.70;;
52590;SDS011;38483;42.620;25.394;2024-03-23T10:57:09;3.27;;;1.80;;
52590;SDS011;38483;42.620;25.394;2024-03-23T10:59:38;2.70;;;2.13;;
52590;SDS011;38483;42.620;25.394;2024-03-23T11:02:06;3.60;;;2.30;;
52590;SDS011;38483;42.620;25.394;2024-03-23T11:04:35;1.90;;;1.77;;
52590;SDS011;38483;42.620;25.394;2024-03-23T11:10:27;2.27;;;1.93;;
52590;SDS011;38483;42.620;25.394;2024-03-23T11:12:56;3.37;;;2.33;;
52590;SDS011;38483;42.620;25.394;2024-03-23T11:15:23;2.83;;;2.17;;
52590;SDS011;38483;42.620;25.394;2024-03-23T11:18:05;3.87;;;2.50;;
52590;SDS011;38483;42.620;25.394;2024-03-23T11:20:36;3.70;;;2.87;;
52590;SDS011;38483;42.620;25.394;2024-03-23T11:23:04;4.83;;;3.90;;
52590;SDS011;38483;42.620;25.394;2024-03-23T11:25:30;2.67;;;2.33;;
52590;SDS011;38483;42.620;25.394;2024-03-23T11:28:17;3.07;;;2.23;;
52590;SDS011;38483;42.620;25.394;2024-03-23T11:30:43;2.10;;;1.90;;
52590;SDS011;38483;42.620;25.394;2024-03-23T11:33:09;3.13;;;2.20;;
52590;SDS011;38483;42.620;25.394;2024-03-23T11:35:38;3.70;;;2.13;;
52590;SDS011;38483;42.620;25.394;2024-03-23T11:40:38;3.73;;;2.10;;
52590;SDS011;38483;42.620;25.394;2024-03-23T11:43:12;3.70;;;1.90;;
52590;SDS011;38483;42.620;25.394;2024-03-23T11:45:40;3.00;;;2.40;;
52590;SDS011;38483;42.620;25.394;2024-03-23T11:48:09;5.07;;;2.40;;
52590;SDS011;38483;42.620;25.394;2024-03-23T11:50:40;3.17;;;2.40;;
52590;SDS011;38483;42.620;25.394;2024-03-23T11:53:14;7.30;;;3.07;;
52590;SDS011;38483;42.620;25.394;2024-03-23T11:55:51;3.83;;;2.03;;
52590;SDS011;38483;42.620;25.394;2024-03-23T11:58:22;2.77;;;2.17;;
52590;SDS011;38483;42.620;25.394;2024-03-23T12:03:23;2.37;;;2.07;;
52590;SDS011;38483;42.620;25.394;2024-03-23T12:05:58;2.90;;;2.17;;
52590;SDS011;38483;42.620;25.394;2024-03-23T12:08:32;5.57;;;2.00;;
52590;SDS011;38483;42.620;25.394;2024-03-23T12:11:06;3.73;;;2.23;;
52590;SDS011;38483;42.620;25.394;2024-03-23T12:13:34;3.63;;;2.30;;
52590;SDS011;38483;42.620;25.394;2024-03-23T12:18:37;2.77;;;2.13;;
52590;SDS011;38483;42.620;25.394;2024-03-23T12:21:04;2.50;;;1.80;;
52590;SDS011;38483;42.620;25.394;2024-03-23T12:23:30;3.33;;;2.30;;
52590;SDS011;38483;42.620;25.394;2024-03-23T12:25:56;2.33;;;1.90;;
52590;SDS011;38483;42.620;25.394;2024-03-23T12:28:22;3.73;;;2.17;;
52590;SDS011;38483;42.620;25.394;2024-03-23T12:30:48;2.00;;;1.80;;
52590;SDS011;38483;42.620;25.394;2024-03-23T12:33:14;2.80;;;2.20;;
52590;SDS011;38483;42.620;25.394;2024-03-23T12:35:40;2.10;;;1.90;;
52590;SDS011;38483;42.620;25.394;2024-03-23T12:38:06;7.20;;;1.90;;
52590;SDS011;38483;42.620;25.394;2024-03-23T12:40:32;2.60;;;2.00;;
52590;SDS011;38483;42.620;25.394;2024-03-23T12:42:58;4.03;;;2.33;;
52590;SDS011;38483;42.620;25.394;2024-03-23T12:45:24;3.30;;;2.10;;
52590;SDS011;38483;42.620;25.394;2024-03-23T12:47:50;3.53;;;2.67;;
52590;SDS011;38483;42.620;25.394;2024-03-23T12:50:20;4.33;;;2.20;;
52590;SDS011;38483;42.620;25.394;2024-03-23T12:52:46;2.43;;;1.90;;
52590;SDS011;38483;42.620;25.394;2024-03-23T12:55:12;3.30;;;1.90;;
52590;SDS011;38483;42.620;25.394;2024-03-23T12:57:39;3.00;;;2.03;;
52590;SDS011;38483;42.620;25.394;2024-03-23T13:00:06;6.03;;;2.03;;
52590;SDS011;38483;42.620;25.394;2024-03-23T13:02:36;2.10;;;1.90;;
52590;SDS011;38483;42.620;25.394;2024-03-23T13:05:02;3.83;;;2.40;;
52590;SDS011;38483;42.620;25.394;2024-03-23T13:07:29;2.53;;;2.07;;
52590;SDS011;38483;42.620;25.394;2024-03-23T13:09:55;2.80;;;2.10;;
52590;SDS011;38483;42.620;25.394;2024-03-23T13:12:22;4.37;;;2.30;;
52590;SDS011;38483;42.620;25.394;2024-03-23T13:14:49;2.40;;;2.10;;
52590;SDS011;38483;42.620;25.394;2024-03-23T13:17:15;2.80;;;1.90;;
52590;SDS011;38483;42.620;25.394;2024-03-23T13:19:41;3.03;;;2.10;;
52590;SDS011;38483;42.620;25.394;2024-03-23T13:22:07;2.33;;;1.97;;
52590;SDS011;38483;42.620;25.394;2024-03-23T13:24:34;3.87;;;2.00;;
52590;SDS011;38483;42.620;25.394;2024-03-23T13:27:00;5.10;;;2.67;;
52590;SDS011;38483;42.620;25.394;2024-03-23T13:29:26;2.63;;;2.00;;
52590;SDS011;38483;42.620;25.394;2024-03-23T13:31:52;3.90;;;2.17;;
52590;SDS011;38483;42.620;25.394;2024-03-23T13:34:19;3.70;;;1.90;;
52590;SDS011;38483;42.620;25.394;2024-03-23T13:36:45;2.60;;;2.10;;
52590;SDS011;38483;42.620;25.394;2024-03-23T13:39:12;4.13;;;2.20;;
52590;SDS011;38483;42.620;25.394;2024-03-23T13:41:41;3.57;;;2.10;;
52590;SDS011;38483;42.620;25.394;2024-03-23T13:44:09;7.00;;;2.10;;
52590;SDS011;38483;42.620;25.394;2024-03-23T13:46:36;2.03;;;1.87;;
52590;SDS011;38483;42.620;25.394;2024-03-23T13:49:03;3.37;;;2.30;;
52590;SDS011;38483;42.620;25.394;2024-03-23T13:51:30;3.70;;;2.50;;
52590;SDS011;38483;42.620;25.394;2024-03-23T13:53:57;5.67;;;2.67;;
52590;SDS011;38483;42.620;25.394;2024-03-23T13:56:24;2.73;;;2.30;;
52590;SDS011;38483;42.620;25.394;2024-03-23T13:58:50;4.10;;;2.60;;
52590;SDS011;38483;42.620;25.394;2024-03-23T14:01:16;3.63;;;2.40;;
52590;SDS011;38483;42.620;25.394;2024-03-23T14:03:43;3.20;;;2.40;;
52590;SDS011;38483;42.620;25.394;2024-03-23T14:06:09;2.83;;;2.53;;
52590;SDS011;38483;42.620;25.394;2024-03-23T14:08:36;2.43;;;2.03;;
52590;SDS011;38483;42.620;25.394;2024-03-23T14:11:07;4.80;;;2.70;;
52590;SDS011;38483;42.620;25.394;2024-03-23T14:13:37;3.23;;;2.17;;
52590;SDS011;38483;42.620;25.394;2024-03-23T14:16:03;2.70;;;2.27;;
52590;SDS011;38483;42.620;25.394;2024-03-23T14:18:30;3.63;;;2.90;;
52590;SDS011;38483;42.620;25.394;2024-03-23T14:20:56;2.80;;;2.30;;
52590;SDS011;38483;42.620;25.394;2024-03-23T14:23:25;4.37;;;2.20;;
52590;SDS011;38483;42.620;25.394;2024-03-23T14:25:55;5.20;;;2.70;;
52590;SDS011;38483;42.620;25.394;2024-03-23T14:28:22;3.80;;;2.50;;
52590;SDS011;38483;42.620;25.394;2024-03-23T14:30:50;3.47;;;2.50;;
52590;SDS011;38483;42.620;25.394;2024-03-23T14:33:16;2.87;;;2.30;;
52590;SDS011;38483;42.620;25.394;2024-03-23T14:35:43;5.03;;;2.70;;
52590;SDS011;38483;42.620;25.394;2024-03-23T14:38:18;4.30;;;2.57;;
52590;SDS011;38483;42.620;25.394;2024-03-23T14:40:45;3.17;;;2.37;;
52590;SDS011;38483;42.620;25.394;2024-03-23T14:43:12;6.07;;;2.47;;
52590;SDS011;38483;42.620;25.394;2024-03-23T14:48:31;2.60;;;2.40;;
52590;SDS011;38483;42.620;25.394;2024-03-23T14:50:58;3.23;;;2.40;;
52590;SDS011;38483;42.620;25.394;2024-03-23T14:53:25;3.57;;;2.43;;
52590;SDS011;38483;42.620;25.394;2024-03-23T14:55:58;4.13;;;2.47;;
52590;SDS011;38483;42.620;25.394;2024-03-23T14:58:28;3.93;;;3.00;;
52590;SDS011;38483;42.620;25.394;2024-03-23T15:01:01;6.27;;;3.10;;
52590;SDS011;38483;42.620;25.394;2024-03-23T15:03:34;7.63;;;3.90;;
52590;SDS011;38483;42.620;25.394;2024-03-23T15:06:00;5.97;;;3.87;;
52590;SDS011;38483;42.620;25.394;2024-03-23T15:08:27;6.93;;;4.43;;
52590;SDS011;38483;42.620;25.394;2024-03-23T15:10:53;5.07;;;2.80;;
52590;SDS011;38483;42.620;25.394;2024-03-23T15:13:20;4.77;;;2.80;;
52590;SDS011;38483;42.620;25.394;2024-03-23T15:15:48;3.60;;;2.33;;
52590;SDS011;38483;42.620;25.394;2024-03-23T15:18:15;3.30;;;2.13;;
52590;SDS011;38483;42.620;25.394;2024-03-23T15:20:42;3.83;;;2.70;;
52590;SDS011;38483;42.620;25.394;2024-03-23T15:23:17;4.17;;;2.57;;
52590;SDS011;38483;42.620;25.394;2024-03-23T15:25:42;3.30;;;2.70;;
52590;SDS011;38483;42.620;25.394;2024-03-23T15:28:08;5.13;;;2.60;;
52590;SDS011;38483;42.620;25.394;2024-03-23T15:30:35;4.10;;;2.33;;
52590;SDS011;38483;42.620;25.394;2024-03-23T15:33:01;3.40;;;2.00;;
52590;SDS011;38483;42.620;25.394;2024-03-23T15:35:28;5.17;;;2.00;;
52590;SDS011;38483;42.620;25.394;2024-03-23T15:37:54;3.23;;;2.40;;
52590;SDS011;38483;42.620;25.394;2024-03-23T15:40:20;5.63;;;2.37;;
52590;SDS011;38483;42.620;25.394;2024-03-23T15:42:46;2.57;;;2.10;;
52590;SDS011;38483;42.620;25.394;2024-03-23T15:45:12;5.53;;;2.53;;
52590;SDS011;38483;42.620;25.394;2024-03-23T15:47:38;4.27;;;2.70;;